TAF Text Data
IDs:
Format:
Raw Decoded Include METAR

Data at: 0828 UTC 21 Sep 2018

KPHF 210533Z 2106/2206 00000KT P6SM SCT050
  FM211000 00000KT P6SM SCT025
  FM211600 16008KT P6SM SCT050
  FM220200 21008KT P6SM SCT250